sensor_id;sensor_type;location;lat;lon;timestamp;pressure;altitude;pressure_sealevel;temperature
12126;BMP180;6126;57.908;16.490;2022-12-29T00:00:06;100038.19;;;1.74
12126;BMP180;6126;57.908;16.490;2022-12-29T00:02:32;100033.91;;;1.73
12126;BMP180;6126;57.908;16.490;2022-12-29T00:04:58;100036.50;;;1.73
12126;BMP180;6126;57.908;16.490;2022-12-29T00:07:24;100037.34;;;1.73
12126;BMP180;6126;57.908;16.490;2022-12-29T00:09:50;100045.13;;;1.72
12126;BMP180;6126;57.908;16.490;2022-12-29T00:12:15;100039.13;;;1.70
12126;BMP180;6126;57.908;16.490;2022-12-29T00:14:41;100028.00;;;1.68
12126;BMP180;6126;57.908;16.490;2022-12-29T00:17:26;100026.31;;;1.67
12126;BMP180;6126;57.908;16.490;2022-12-29T00:19:51;100021.16;;;1.67
12126;BMP180;6126;57.908;16.490;2022-12-29T00:22:36;100011.66;;;1.70
12126;BMP180;6126;57.908;16.490;2022-12-29T00:25:20;100020.06;;;1.78
12126;BMP180;6126;57.908;16.490;2022-12-29T00:28:08;100019.16;;;1.82
12126;BMP180;6126;57.908;16.490;2022-12-29T00:30:52;100014.72;;;1.87
12126;BMP180;6126;57.908;16.490;2022-12-29T00:33:37;100001.78;;;1.91
12126;BMP180;6126;57.908;16.490;2022-12-29T00:36:39;99994.03;;;1.91
12126;BMP180;6126;57.908;16.490;2022-12-29T00:39:12;100006.94;;;1.91
12126;BMP180;6126;57.908;16.490;2022-12-29T00:42:07;99988.06;;;1.89
12126;BMP180;6126;57.908;16.490;2022-12-29T00:44:51;99988.13;;;1.88
12126;BMP180;6126;57.908;16.490;2022-12-29T00:47:17;99989.91;;;1.84
12126;BMP180;6126;57.908;16.490;2022-12-29T00:49:43;99979.69;;;1.80
12126;BMP180;6126;57.908;16.490;2022-12-29T00:52:12;99974.63;;;1.76
12126;BMP180;6126;57.908;16.490;2022-12-29T00:54:40;99980.56;;;1.79
12126;BMP180;6126;57.908;16.490;2022-12-29T00:57:09;99973.56;;;1.85
12126;BMP180;6126;57.908;16.490;2022-12-29T00:59:40;99971.69;;;1.92
12126;BMP180;6126;57.908;16.490;2022-12-29T01:02:07;99981.03;;;1.97
12126;BMP180;6126;57.908;16.490;2022-12-29T01:04:33;99974.06;;;2.02
12126;BMP180;6126;57.908;16.490;2022-12-29T01:06:59;99971.44;;;2.05
12126;BMP180;6126;57.908;16.490;2022-12-29T01:09:25;99967.94;;;2.08
12126;BMP180;6126;57.908;16.490;2022-12-29T01:12:10;99969.56;;;2.13
12126;BMP180;6126;57.908;16.490;2022-12-29T01:14:37;99957.44;;;2.16
12126;BMP180;6126;57.908;16.490;2022-12-29T01:17:04;99954.78;;;2.21
12126;BMP180;6126;57.908;16.490;2022-12-29T01:19:30;99947.75;;;2.26
12126;BMP180;6126;57.908;16.490;2022-12-29T01:21:56;99941.66;;;2.30
12126;BMP180;6126;57.908;16.490;2022-12-29T01:24:22;99942.50;;;2.32
12126;BMP180;6126;57.908;16.490;2022-12-29T01:26:49;99938.94;;;2.36
12126;BMP180;6126;57.908;16.490;2022-12-29T01:29:16;99932.94;;;2.37
12126;BMP180;6126;57.908;16.490;2022-12-29T01:31:42;99935.50;;;2.37
12126;BMP180;6126;57.908;16.490;2022-12-29T01:34:08;99940.66;;;2.37
12126;BMP180;6126;57.908;16.490;2022-12-29T01:36:34;99940.66;;;2.37
12126;BMP180;6126;57.908;16.490;2022-12-29T01:39:00;99933.78;;;2.36
12126;BMP180;6126;57.908;16.490;2022-12-29T01:41:26;99927.78;;;2.37
12126;BMP180;6126;57.908;16.490;2022-12-29T01:43:57;99928.56;;;2.39
12126;BMP180;6126;57.908;16.490;2022-12-29T01:46:38;99919.97;;;2.40
12126;BMP180;6126;57.908;16.490;2022-12-29T01:51:43;99925.88;;;2.43
12126;BMP180;6126;57.908;16.490;2022-12-29T01:56:53;99918.25;;;2.39
12126;BMP180;6126;57.908;16.490;2022-12-29T01:59:30;99912.16;;;2.41
12126;BMP180;6126;57.908;16.490;2022-12-29T02:01:56;99914.72;;;2.43
12126;BMP180;6126;57.908;16.490;2022-12-29T02:04:24;99915.50;;;2.46
12126;BMP180;6126;57.908;16.490;2022-12-29T02:07:06;99910.25;;;2.49
12126;BMP180;6126;57.908;16.490;2022-12-29T02:09:33;99899.09;;;2.50
12126;BMP180;6126;57.908;16.490;2022-12-29T02:12:00;99902.47;;;2.52
12126;BMP180;6126;57.908;16.490;2022-12-29T02:14:26;99898.16;;;2.52
12126;BMP180;6126;57.908;16.490;2022-12-29T02:17:23;99895.59;;;2.52
12126;BMP180;6126;57.908;16.490;2022-12-29T02:32:05;99877.47;;;2.55
12126;BMP180;6126;57.908;16.490;2022-12-29T02:34:47;99880.03;;;2.55
12126;BMP180;6126;57.908;16.490;2022-12-29T02:37:42;99884.34;;;2.55
12126;BMP180;6126;57.908;16.490;2022-12-29T02:40:31;99881.72;;;2.56
12126;BMP180;6126;57.908;16.490;2022-12-29T02:45:59;99884.28;;;2.58
12126;BMP180;6126;57.908;16.490;2022-12-29T02:48:42;99870.47;;;2.59
12126;BMP180;6126;57.908;16.490;2022-12-29T02:51:27;99871.31;;;2.59
12126;BMP180;6126;57.908;16.490;2022-12-29T02:53:56;99861.00;;;2.59
12126;BMP180;6126;57.908;16.490;2022-12-29T02:56:41;99862.72;;;2.60
12126;BMP180;6126;57.908;16.490;2022-12-29T02:59:07;99854.09;;;2.61
12126;BMP180;6126;57.908;16.490;2022-12-29T03:11:11;99842.69;;;2.70
12126;BMP180;6126;57.908;16.490;2022-12-29T03:16:34;99829.03;;;2.66
12126;BMP180;6126;57.908;16.490;2022-12-29T03:19:17;99821.28;;;2.66
12126;BMP180;6126;57.908;16.490;2022-12-29T03:24:42;99816.03;;;2.71
12126;BMP180;6126;57.908;16.490;2022-12-29T03:27:14;99819.38;;;2.74
12126;BMP180;6126;57.908;16.490;2022-12-29T03:29:50;99811.59;;;2.76
12126;BMP180;6126;57.908;16.490;2022-12-29T03:32:32;99800.34;;;2.78
12126;BMP180;6126;57.908;16.490;2022-12-29T03:35:00;99776.25;;;2.79
12126;BMP180;6126;57.908;16.490;2022-12-29T03:37:39;99779.56;;;2.82
12126;BMP180;6126;57.908;16.490;2022-12-29T03:40:07;99788.94;;;2.86
12126;BMP180;6126;57.908;16.490;2022-12-29T03:42:36;99776.84;;;2.88
12126;BMP180;6126;57.908;16.490;2022-12-29T03:45:05;99788.78;;;2.91
12126;BMP180;6126;57.908;16.490;2022-12-29T03:47:32;99778.44;;;2.92
12126;BMP180;6126;57.908;16.490;2022-12-29T03:49:58;99781.03;;;2.92
12126;BMP180;6126;57.908;16.490;2022-12-29T03:52:23;99790.50;;;2.92
12126;BMP180;6126;57.908;16.490;2022-12-29T03:54:49;99789.69;;;2.90
12126;BMP180;6126;57.908;16.490;2022-12-29T03:57:15;99795.69;;;2.90
12126;BMP180;6126;57.908;16.490;2022-12-29T03:59:41;99800.91;;;2.89
12126;BMP180;6126;57.908;16.490;2022-12-29T04:02:07;99787.19;;;2.87
12126;BMP180;6126;57.908;16.490;2022-12-29T04:04:33;99789.78;;;2.87
12126;BMP180;6126;57.908;16.490;2022-12-29T04:06:59;99786.28;;;2.88
12126;BMP180;6126;57.908;16.490;2022-12-29T04:09:24;99777.69;;;2.89
12126;BMP180;6126;57.908;16.490;2022-12-29T04:11:50;99764.72;;;2.92
12126;BMP180;6126;57.908;16.490;2022-12-29T04:14:16;99762.94;;;2.94
12126;BMP180;6126;57.908;16.490;2022-12-29T04:16:42;99761.13;;;2.96
12126;BMP180;6126;57.908;16.490;2022-12-29T04:19:08;99753.31;;;2.99
12126;BMP180;6126;57.908;16.490;2022-12-29T04:21:34;99748.09;;;3.02
12126;BMP180;6126;57.908;16.490;2022-12-29T04:24:00;99738.50;;;3.05
12126;BMP180;6126;57.908;16.490;2022-12-29T04:26:26;99737.56;;;3.07
12126;BMP180;6126;57.908;16.490;2022-12-29T04:28:52;99728.00;;;3.11
12126;BMP180;6126;57.908;16.490;2022-12-29T04:31:18;99726.19;;;3.14
12126;BMP180;6126;57.908;16.490;2022-12-29T04:33:44;99728.69;;;3.17
12126;BMP180;6126;57.908;16.490;2022-12-29T04:36:09;99713.94;;;3.21
12126;BMP180;6126;57.908;16.490;2022-12-29T04:38:35;99713.84;;;3.24
12126;BMP180;6126;57.908;16.490;2022-12-29T04:41:02;99712.00;;;3.27
12126;BMP180;6126;57.908;16.490;2022-12-29T04:43:28;99705.03;;;3.31
12126;BMP180;6126;57.908;16.490;2022-12-29T04:45:54;99698.88;;;3.35
12126;BMP180;6126;57.908;16.490;2022-12-29T04:48:20;99702.22;;;3.38
12126;BMP180;6126;57.908;16.490;2022-12-29T04:50:48;99706.47;;;3.40
12126;BMP180;6126;57.908;16.490;2022-12-29T04:53:17;99699.50;;;3.42
12126;BMP180;6126;57.908;16.490;2022-12-29T04:55:43;99693.34;;;3.46
12126;BMP180;6126;57.908;16.490;2022-12-29T04:58:09;99688.13;;;3.48
12126;BMP180;6126;57.908;16.490;2022-12-29T05:00:35;99687.19;;;3.50
12126;BMP180;6126;57.908;16.490;2022-12-29T05:03:01;99698.38;;;3.51
12126;BMP180;6126;57.908;16.490;2022-12-29T05:05:27;99689.75;;;3.52
12126;BMP180;6126;57.908;16.490;2022-12-29T05:07:53;99685.47;;;3.51
12126;BMP180;6126;57.908;16.490;2022-12-29T05:10:19;99677.66;;;3.52
12126;BMP180;6126;57.908;16.490;2022-12-29T05:12:44;99672.47;;;3.54
12126;BMP180;6126;57.908;16.490;2022-12-29T05:15:11;99670.66;;;3.56
12126;BMP180;6126;57.908;16.490;2022-12-29T05:17:37;99675.78;;;3.57
12126;BMP180;6126;57.908;16.490;2022-12-29T05:20:05;99669.72;;;3.58
12126;BMP180;6126;57.908;16.490;2022-12-29T05:22:31;99674.84;;;3.60
12126;BMP180;6126;57.908;16.490;2022-12-29T05:24:57;99679.09;;;3.61
12126;BMP180;6126;57.908;16.490;2022-12-29T05:27:23;99676.50;;;3.62
12126;BMP180;6126;57.908;16.490;2022-12-29T05:29:49;99672.13;;;3.64
12126;BMP180;6126;57.908;16.490;2022-12-29T05:32:15;99667.81;;;3.65
12126;BMP180;6126;57.908;16.490;2022-12-29T05:34:41;99666.84;;;3.67
12126;BMP180;6126;57.908;16.490;2022-12-29T05:37:07;99659.03;;;3.68
12126;BMP180;6126;57.908;16.490;2022-12-29T05:39:33;99643.50;;;3.70
12126;BMP180;6126;57.908;16.490;2022-12-29T05:41:59;99652.91;;;3.72
12126;BMP180;6126;57.908;16.490;2022-12-29T05:44:24;99647.63;;;3.75
12126;BMP180;6126;57.908;16.490;2022-12-29T05:46:50;99638.97;;;3.76
12126;BMP180;6126;57.908;16.490;2022-12-29T05:49:17;99626.91;;;3.77
12126;BMP180;6126;57.908;16.490;2022-12-29T05:51:43;99633.72;;;3.79
12126;BMP180;6126;57.908;16.490;2022-12-29T05:54:09;99614.72;;;3.80
12126;BMP180;6126;57.908;16.490;2022-12-29T05:56:34;99623.28;;;3.82
12126;BMP180;6126;57.908;16.490;2022-12-29T05:59:00;99622.44;;;3.82
12126;BMP180;6126;57.908;16.490;2022-12-29T06:01:27;99620.69;;;3.82
12126;BMP180;6126;57.908;16.490;2022-12-29T06:03:53;99618.13;;;3.82
12126;BMP180;6126;57.908;16.490;2022-12-29T06:06:19;99615.53;;;3.82
12126;BMP180;6126;57.908;16.490;2022-12-29T06:08:44;99615.53;;;3.82
12126;BMP180;6126;57.908;16.490;2022-12-29T06:11:10;99614.63;;;3.83
12126;BMP180;6126;57.908;16.490;2022-12-29T06:13:36;99616.31;;;3.84
12126;BMP180;6126;57.908;16.490;2022-12-29T06:16:02;99615.44;;;3.85
12126;BMP180;6126;57.908;16.490;2022-12-29T06:18:28;99601.66;;;3.85
12126;BMP180;6126;57.908;16.490;2022-12-29T06:21:03;99596.44;;;3.86
12126;BMP180;6126;57.908;16.490;2022-12-29T06:23:29;99593.84;;;3.86
12126;BMP180;6126;57.908;16.490;2022-12-29T06:25:56;99575.75;;;3.86
12126;BMP180;6126;57.908;16.490;2022-12-29T06:28:23;99581.72;;;3.88
12126;BMP180;6126;57.908;16.490;2022-12-29T06:30:49;99574.78;;;3.90
12126;BMP180;6126;57.908;16.490;2022-12-29T06:33:15;99574.78;;;3.90
12126;BMP180;6126;57.908;16.490;2022-12-29T06:35:45;99575.63;;;3.91
12126;BMP180;6126;57.908;16.490;2022-12-29T06:38:11;99574.78;;;3.90
12126;BMP180;6126;57.908;16.490;2022-12-29T06:40:38;99579.94;;;3.90
12126;BMP180;6126;57.908;16.490;2022-12-29T06:43:04;99569.59;;;3.90
12126;BMP180;6126;57.908;16.490;2022-12-29T06:45:29;99560.16;;;3.89
12126;BMP180;6126;57.908;16.490;2022-12-29T06:47:55;99567.78;;;3.92
12126;BMP180;6126;57.908;16.490;2022-12-29T06:50:21;99570.44;;;3.91
12126;BMP180;6126;57.908;16.490;2022-12-29T06:52:47;99566.94;;;3.92
12126;BMP180;6126;57.908;16.490;2022-12-29T06:55:13;99568.66;;;3.93
12126;BMP180;6126;57.908;16.490;2022-12-29T06:57:39;99562.59;;;3.94
12126;BMP180;6126;57.908;16.490;2022-12-29T07:00:06;99557.41;;;3.94
12126;BMP180;6126;57.908;16.490;2022-12-29T07:02:32;99558.13;;;3.97
12126;BMP180;6126;57.908;16.490;2022-12-29T07:04:57;99546.94;;;3.98
12126;BMP180;6126;57.908;16.490;2022-12-29T07:07:23;99558.81;;;4.02
12126;BMP180;6126;57.908;16.490;2022-12-29T07:09:49;99548.38;;;4.05
12126;BMP180;6126;57.908;16.490;2022-12-29T07:12:15;99547.50;;;4.06
12126;BMP180;6126;57.908;16.490;2022-12-29T07:14:41;99546.53;;;4.08
12126;BMP180;6126;57.908;16.490;2022-12-29T07:17:07;99540.44;;;4.11
12126;BMP180;6126;57.908;16.490;2022-12-29T07:19:33;99540.31;;;4.14
12126;BMP180;6126;57.908;16.490;2022-12-29T07:21:59;99541.09;;;4.16
12126;BMP180;6126;57.908;16.490;2022-12-29T07:24:25;99550.50;;;4.18
12126;BMP180;6126;57.908;16.490;2022-12-29T07:26:52;99540.09;;;4.20
12126;BMP180;6126;57.908;16.490;2022-12-29T07:29:18;99539.09;;;4.24
12126;BMP180;6126;57.908;16.490;2022-12-29T07:31:44;99531.16;;;4.28
12126;BMP180;6126;57.908;16.490;2022-12-29T07:34:10;99536.16;;;4.32
12126;BMP180;6126;57.908;16.490;2022-12-29T07:36:36;99534.41;;;4.33
12126;BMP180;6126;57.908;16.490;2022-12-29T07:39:03;99534.41;;;4.33
12126;BMP180;6126;57.908;16.490;2022-12-29T07:41:29;99534.28;;;4.36
12126;BMP180;6126;57.908;16.490;2022-12-29T07:43:55;99520.41;;;4.38
12126;BMP180;6126;57.908;16.490;2022-12-29T07:46:21;99529.78;;;4.41
12126;BMP180;6126;57.908;16.490;2022-12-29T07:48:47;99517.69;;;4.41
12126;BMP180;6126;57.908;16.490;2022-12-29T07:51:12;99508.94;;;4.45
12126;BMP180;6126;57.908;16.490;2022-12-29T07:53:38;99516.53;;;4.50
12126;BMP180;6126;57.908;16.490;2022-12-29T07:56:05;99503.53;;;4.51
12126;BMP180;6126;57.908;16.490;2022-12-29T07:58:31;99499.16;;;4.53
12126;BMP180;6126;57.908;16.490;2022-12-29T08:00:58;99487.88;;;4.54
12126;BMP180;6126;57.908;16.490;2022-12-29T08:03:24;99486.09;;;4.56
12126;BMP180;6126;57.908;16.490;2022-12-29T08:05:52;99483.47;;;4.58
12126;BMP180;6126;57.908;16.490;2022-12-29T08:08:18;99489.47;;;4.58
12126;BMP180;6126;57.908;16.490;2022-12-29T08:10:45;99486.88;;;4.58
12126;BMP180;6126;57.908;16.490;2022-12-29T08:13:11;99470.47;;;4.59
12126;BMP180;6126;57.908;16.490;2022-12-29T08:15:38;99474.66;;;4.61
12126;BMP180;6126;57.908;16.490;2022-12-29T08:18:04;99476.28;;;4.64
12126;BMP180;6126;57.908;16.490;2022-12-29T08:20:30;99477.09;;;4.66
12126;BMP180;6126;57.908;16.490;2022-12-29T08:22:57;99481.34;;;4.67
12126;BMP180;6126;57.908;16.490;2022-12-29T08:25:23;99471.91;;;4.66
12126;BMP180;6126;57.908;16.490;2022-12-29T08:27:49;99468.38;;;4.68
12126;BMP180;6126;57.908;16.490;2022-12-29T08:30:15;99469.16;;;4.70
12126;BMP180;6126;57.908;16.490;2022-12-29T08:32:42;99468.91;;;4.76
12126;BMP180;6126;57.908;16.490;2022-12-29T08:35:08;99463.66;;;4.78
12126;BMP180;6126;57.908;16.490;2022-12-29T08:37:34;99444.66;;;4.79
12126;BMP180;6126;57.908;16.490;2022-12-29T08:40:01;99448.03;;;4.81
12126;BMP180;6126;57.908;16.490;2022-12-29T08:42:30;99447.00;;;4.85
12126;BMP180;6126;57.908;16.490;2022-12-29T08:44:59;99444.47;;;4.83
12126;BMP180;6126;57.908;16.490;2022-12-29T08:47:26;99453.97;;;4.83
12126;BMP180;6126;57.908;16.490;2022-12-29T08:49:52;99452.16;;;4.85
12126;BMP180;6126;57.908;16.490;2022-12-29T08:52:18;99438.31;;;4.86
12126;BMP180;6126;57.908;16.490;2022-12-29T08:54:44;99439.19;;;4.86
12126;BMP180;6126;57.908;16.490;2022-12-29T08:57:10;99445.19;;;4.87
12126;BMP180;6126;57.908;16.490;2022-12-29T08:59:36;99429.66;;;4.87
12126;BMP180;6126;57.908;16.490;2022-12-29T09:02:02;99434.84;;;4.87
12126;BMP180;6126;57.908;16.490;2022-12-29T09:04:28;99427.88;;;4.89
12126;BMP180;6126;57.908;16.490;2022-12-29T09:06:54;99425.97;;;4.92
12126;BMP180;6126;57.908;16.490;2022-12-29T09:09:21;99425.97;;;4.92
12126;BMP180;6126;57.908;16.490;2022-12-29T09:11:47;99425.06;;;4.93
12126;BMP180;6126;57.908;16.490;2022-12-29T09:14:13;99414.72;;;4.93
12126;BMP180;6126;57.908;16.490;2022-12-29T09:16:40;99411.16;;;4.95
12126;BMP180;6126;57.908;16.490;2022-12-29T09:19:24;99410.28;;;4.96
12126;BMP180;6126;57.908;16.490;2022-12-29T09:21:50;99407.69;;;4.96
12126;BMP180;6126;57.908;16.490;2022-12-29T09:24:16;99399.91;;;4.96
12126;BMP180;6126;57.908;16.490;2022-12-29T09:26:42;99408.34;;;5.01
12126;BMP180;6126;57.908;16.490;2022-12-29T09:29:08;99387.56;;;5.03
12126;BMP180;6126;57.908;16.490;2022-12-29T09:31:34;99395.25;;;5.04
12126;BMP180;6126;57.908;16.490;2022-12-29T09:33:59;99389.16;;;5.05
12126;BMP180;6126;57.908;16.490;2022-12-29T09:36:25;99392.69;;;5.04
12126;BMP180;6126;57.908;16.490;2022-12-29T09:38:53;99380.56;;;5.05
12126;BMP180;6126;57.908;16.490;2022-12-29T09:44:50;99371.75;;;5.09
12126;BMP180;6126;57.908;16.490;2022-12-29T09:47:19;99374.34;;;5.09
12126;BMP180;6126;57.908;16.490;2022-12-29T09:50:13;99378.63;;;5.10
12126;BMP180;6126;57.908;16.490;2022-12-29T09:52:51;99368.31;;;5.08
12126;BMP180;6126;57.908;16.490;2022-12-29T09:55:34;99363.16;;;5.08
12126;BMP180;6126;57.908;16.490;2022-12-29T09:58:23;99361.34;;;5.10
12126;BMP180;6126;57.908;16.490;2022-12-29T10:03:55;99348.47;;;5.09
12126;BMP180;6126;57.908;16.490;2022-12-29T10:09:50;99362.19;;;5.11
12126;BMP180;6126;57.908;16.490;2022-12-29T10:15:26;99349.25;;;5.11
12126;BMP180;6126;57.908;16.490;2022-12-29T10:20:56;99340.50;;;5.13
12126;BMP180;6126;57.908;16.490;2022-12-29T10:23:52;99338.69;;;5.15
12126;BMP180;6126;57.908;16.490;2022-12-29T10:26:27;99335.91;;;5.20
12126;BMP180;6126;57.908;16.490;2022-12-29T10:31:51;99335.56;;;5.27
12126;BMP180;6126;57.908;16.490;2022-12-29T10:34:26;99324.22;;;5.29
12126;BMP180;6126;57.908;16.490;2022-12-29T10:39:51;99313.72;;;5.32
12126;BMP180;6126;57.908;16.490;2022-12-29T10:42:36;99323.00;;;5.38
12126;BMP180;6126;57.908;16.490;2022-12-29T10:45:04;99315.00;;;5.42
12126;BMP180;6126;57.908;16.490;2022-12-29T10:47:38;99311.44;;;5.45
12126;BMP180;6126;57.908;16.490;2022-12-29T10:50:05;99303.53;;;5.48
12126;BMP180;6126;57.908;16.490;2022-12-29T10:52:34;99299.13;;;5.50
12126;BMP180;6126;57.908;16.490;2022-12-29T10:55:16;99295.50;;;5.53
12126;BMP180;6126;57.908;16.490;2022-12-29T10:57:47;99279.09;;;5.53
12126;BMP180;6126;57.908;16.490;2022-12-29T11:00:19;99285.84;;;5.57
12126;BMP180;6126;57.908;16.490;2022-12-29T11:06:24;99282.13;;;5.62
12126;BMP180;6126;57.908;16.490;2022-12-29T11:08:59;99282.91;;;5.64
12126;BMP180;6126;57.908;16.490;2022-12-29T11:11:34;99282.63;;;5.70
12126;BMP180;6126;57.908;16.490;2022-12-29T11:14:21;99274.69;;;5.75
12126;BMP180;6126;57.908;16.490;2022-12-29T11:17:00;99279.56;;;5.81
12126;BMP180;6126;57.908;16.490;2022-12-29T11:19:31;99273.25;;;5.86
12126;BMP180;6126;57.908;16.490;2022-12-29T11:24:51;99283.06;;;5.98
12126;BMP180;6126;57.908;16.490;2022-12-29T11:27:25;99271.75;;;5.99
12126;BMP180;6126;57.908;16.490;2022-12-29T11:29:53;99273.53;;;5.98
12126;BMP180;6126;57.908;16.490;2022-12-29T11:32:27;99266.53;;;6.00
12126;BMP180;6126;57.908;16.490;2022-12-29T11:34:56;99268.13;;;6.03
12126;BMP180;6126;57.908;16.490;2022-12-29T11:37:56;99258.50;;;6.05
12126;BMP180;6126;57.908;16.490;2022-12-29T11:40:23;99257.63;;;6.06
12126;BMP180;6126;57.908;16.490;2022-12-29T11:45:24;99257.63;;;6.06
12126;BMP180;6126;57.908;16.490;2022-12-29T11:48:06;99249.06;;;6.04
12126;BMP180;6126;57.908;16.490;2022-12-29T11:50:39;99242.94;;;6.05
12126;BMP180;6126;57.908;16.490;2022-12-29T11:53:20;99248.13;;;6.05
12126;BMP180;6126;57.908;16.490;2022-12-29T11:55:58;99249.84;;;6.06
12126;BMP180;6126;57.908;16.490;2022-12-29T11:58:36;99248.84;;;6.08
12126;BMP180;6126;57.908;16.490;2022-12-29T12:01:33;99236.63;;;6.10
12126;BMP180;6126;57.908;16.490;2022-12-29T12:04:15;99237.50;;;6.11
12126;BMP180;6126;57.908;16.490;2022-12-29T12:07:10;99235.78;;;6.10
12126;BMP180;6126;57.908;16.490;2022-12-29T12:09:58;99229.63;;;6.12
12126;BMP180;6126;57.908;16.490;2022-12-29T12:12:33;99227.81;;;6.14
12126;BMP180;6126;57.908;16.490;2022-12-29T12:15:03;99226.97;;;6.14
12126;BMP180;6126;57.908;16.490;2022-12-29T12:17:39;99223.53;;;6.13
12126;BMP180;6126;57.908;16.490;2022-12-29T12:25:45;99210.47;;;6.14
12126;BMP180;6126;57.908;16.490;2022-12-29T12:28:28;99206.06;;;6.16
12126;BMP180;6126;57.908;16.490;2022-12-29T12:30:59;99213.75;;;6.18
12126;BMP180;6126;57.908;16.490;2022-12-29T12:33:36;99213.69;;;6.19
12126;BMP180;6126;57.908;16.490;2022-12-29T12:51:33;99229.59;;;6.47
12126;BMP180;6126;57.908;16.490;2022-12-29T12:54:06;99220.56;;;6.54
12126;BMP180;6126;57.908;16.490;2022-12-29T12:57:15;99216.97;;;6.56
12126;BMP180;6126;57.908;16.490;2022-12-29T13:11:12;99205.28;;;6.65
12126;BMP180;6126;57.908;16.490;2022-12-29T13:17:08;99209.56;;;6.66
12126;BMP180;6126;57.908;16.490;2022-12-29T13:20:24;99209.13;;;6.58
12126;BMP180;6126;57.908;16.490;2022-12-29T13:23:26;99224.91;;;6.53
12126;BMP180;6126;57.908;16.490;2022-12-29T13:26:53;99215.69;;;6.48
12126;BMP180;6126;57.908;16.490;2022-12-29T13:29:34;99207.13;;;6.46
12126;BMP180;6126;57.908;16.490;2022-12-29T13:32:29;99207.13;;;6.46
12126;BMP180;6126;57.908;16.490;2022-12-29T13:35:45;99218.44;;;6.45
12126;BMP180;6126;57.908;16.490;2022-12-29T13:38:37;99216.75;;;6.44
12126;BMP180;6126;57.908;16.490;2022-12-29T13:41:25;99227.22;;;6.43
12126;BMP180;6126;57.908;16.490;2022-12-29T13:43:55;99225.44;;;6.43
12126;BMP180;6126;57.908;16.490;2022-12-29T13:46:38;99215.06;;;6.43
12126;BMP180;6126;57.908;16.490;2022-12-29T13:49:15;99213.25;;;6.45
12126;BMP180;6126;57.908;16.490;2022-12-29T13:51:50;99217.50;;;6.46
12126;BMP180;6126;57.908;16.490;2022-12-29T13:54:55;99214.03;;;6.47
12126;BMP180;6126;57.908;16.490;2022-12-29T13:57:52;99207.91;;;6.48
12126;BMP180;6126;57.908;16.490;2022-12-29T14:00:22;99204.94;;;6.55
12126;BMP180;6126;57.908;16.490;2022-12-29T14:03:23;99188.19;;;6.44
12126;BMP180;6126;57.908;16.490;2022-12-29T14:08:53;99194.25;;;6.45
12126;BMP180;6126;57.908;16.490;2022-12-29T14:11:24;99214.16;;;6.44
12126;BMP180;6126;57.908;16.490;2022-12-29T14:13:54;99206.53;;;6.41
12126;BMP180;6126;57.908;16.490;2022-12-29T14:16:31;99196.13;;;6.41
12126;BMP180;6126;57.908;16.490;2022-12-29T14:19:16;99207.22;;;6.45
12126;BMP180;6126;57.908;16.490;2022-12-29T14:21:55;99205.47;;;6.45
12126;BMP180;6126;57.908;16.490;2022-12-29T14:34:57;99196.69;;;6.47
12126;BMP180;6126;57.908;16.490;2022-12-29T14:37:36;99209.56;;;6.49
12126;BMP180;6126;57.908;16.490;2022-12-29T14:42:51;99218.22;;;6.49
12126;BMP180;6126;57.908;16.490;2022-12-29T14:47:50;99209.72;;;6.46
12126;BMP180;6126;57.908;16.490;2022-12-29T14:53:00;99213.25;;;6.45
12126;BMP180;6126;57.908;16.490;2022-12-29T14:58:29;99219.28;;;6.45
12126;BMP180;6126;57.908;16.490;2022-12-29T15:00:58;99215.00;;;6.45
12126;BMP180;6126;57.908;16.490;2022-12-29T15:03:44;99214.16;;;6.44
12126;BMP180;6126;57.908;16.490;2022-12-29T15:06:13;99225.53;;;6.42
12126;BMP180;6126;57.908;16.490;2022-12-29T15:08:54;99215.38;;;6.37
12126;BMP180;6126;57.908;16.490;2022-12-29T15:11:28;99214.63;;;6.35
12126;BMP180;6126;57.908;16.490;2022-12-29T15:13:56;99210.19;;;6.37
12126;BMP180;6126;57.908;16.490;2022-12-29T15:16:33;99208.38;;;6.39
12126;BMP180;6126;57.908;16.490;2022-12-29T15:19:03;99214.31;;;6.41
12126;BMP180;6126;57.908;16.490;2022-12-29T15:21:35;99220.41;;;6.40
12126;BMP180;6126;57.908;16.490;2022-12-29T15:24:03;99222.19;;;6.40
12126;BMP180;6126;57.908;16.490;2022-12-29T15:26:42;99218.75;;;6.39
12126;BMP180;6126;57.908;16.490;2022-12-29T15:29:39;99223.94;;;6.39
12126;BMP180;6126;57.908;16.490;2022-12-29T15:32:16;99230.78;;;6.40
12126;BMP180;6126;57.908;16.490;2022-12-29T15:34:51;99239.41;;;6.41
12126;BMP180;6126;57.908;16.490;2022-12-29T15:37:28;99242.69;;;6.44
12126;BMP180;6126;57.908;16.490;2022-12-29T15:39:57;99239.09;;;6.46
12126;BMP180;6126;57.908;16.490;2022-12-29T15:45:05;99243.19;;;6.52
12126;BMP180;6126;57.908;16.490;2022-12-29T15:47:31;99242.41;;;6.50
12126;BMP180;6126;57.908;16.490;2022-12-29T15:50:31;99242.25;;;6.53
12126;BMP180;6126;57.908;16.490;2022-12-29T15:52:59;99232.63;;;6.55
12126;BMP180;6126;57.908;16.490;2022-12-29T15:55:33;99228.34;;;6.54
12126;BMP180;6126;57.908;16.490;2022-12-29T15:58:03;99220.72;;;6.51
12126;BMP180;6126;57.908;16.490;2022-12-29T16:00:34;99234.00;;;6.45
12126;BMP180;6126;57.908;16.490;2022-12-29T16:03:05;99235.97;;;6.40
12126;BMP180;6126;57.908;16.490;2022-12-29T16:05:38;99236.28;;;6.34
12126;BMP180;6126;57.908;16.490;2022-12-29T16:08:39;99240.78;;;6.31
12126;BMP180;6126;57.908;16.490;2022-12-29T16:11:32;99241.75;;;6.28
12126;BMP180;6126;57.908;16.490;2022-12-29T16:14:00;99240.09;;;6.27
12126;BMP180;6126;57.908;16.490;2022-12-29T16:16:35;99237.34;;;6.30
12126;BMP180;6126;57.908;16.490;2022-12-29T16:19:39;99240.72;;;6.32
12126;BMP180;6126;57.908;16.490;2022-12-29T16:22:17;99238.06;;;6.34
12126;BMP180;6126;57.908;16.490;2022-12-29T16:24:47;99245.84;;;6.34
12126;BMP180;6126;57.908;16.490;2022-12-29T16:27:28;99244.13;;;6.33
12126;BMP180;6126;57.908;16.490;2022-12-29T16:29:57;99240.88;;;6.29
12126;BMP180;6126;57.908;16.490;2022-12-29T16:32:28;99239.03;;;6.31
12126;BMP180;6126;57.908;16.490;2022-12-29T16:35:18;99232.94;;;6.32
12126;BMP180;6126;57.908;16.490;2022-12-29T16:37:44;99239.88;;;6.32
12126;BMP180;6126;57.908;16.490;2022-12-29T16:40:30;99235.53;;;6.32
12126;BMP180;6126;57.908;16.490;2022-12-29T16:43:02;99246.81;;;6.31
12126;BMP180;6126;57.908;16.490;2022-12-29T16:50:48;99244.34;;;6.28
12126;BMP180;6126;57.908;16.490;2022-12-29T16:53:27;99237.81;;;6.38
12126;BMP180;6126;57.908;16.490;2022-12-29T16:55:55;99242.69;;;6.27
12126;BMP180;6126;57.908;16.490;2022-12-29T16:58:27;99247.09;;;6.25
12126;BMP180;6126;57.908;16.490;2022-12-29T17:00:59;99249.69;;;6.25
12126;BMP180;6126;57.908;16.490;2022-12-29T17:03:42;99241.91;;;6.25